createdAt,value
2017-12-23T10:48:46.939Z,35
2017-12-23T10:59:02.647Z,65
2017-12-23T11:09:17.127Z,65
2017-12-23T11:19:31.298Z,90
2017-12-23T11:29:45.800Z,85
2017-12-23T11:40:00.382Z,90
2017-12-23T11:50:15.030Z,110
2017-12-23T12:00:29.729Z,85
2017-12-23T12:10:45.044Z,95
2017-12-23T12:20:59.647Z,100
2017-12-23T12:31:14.431Z,95
2017-12-23T12:41:28.188Z,75
2017-12-23T12:51:43.185Z,70
2017-12-23T13:01:58.535Z,70
2017-12-23T13:12:12.327Z,65
2017-12-23T13:22:26.488Z,70
2017-12-23T13:32:41.078Z,55
2017-12-23T13:42:55.132Z,55
2017-12-23T13:53:10.485Z,55
2017-12-23T14:03:25.082Z,40
2017-12-23T14:13:38.867Z,30
2017-12-23T14:23:52.976Z,25
2017-12-23T14:34:07.036Z,20
2017-12-23T14:44:22.614Z,15
2017-12-23T14:54:38.190Z,10
2017-12-23T15:04:53.301Z,5
2017-12-23T15:15:08.700Z,0
2017-12-23T15:25:23.438Z,0
2017-12-23T15:35:38.855Z,0
2017-12-23T15:45:53.678Z,0
2017-12-23T15:56:08.446Z,0
2017-12-23T16:06:23.137Z,0
2017-12-23T16:16:38.086Z,0
2017-12-23T16:26:52.045Z,0
2017-12-23T16:37:05.765Z,0
2017-12-23T16:47:19.492Z,0
2017-12-23T16:57:33.317Z,0
2017-12-23T17:07:47.091Z,0
2017-12-23T17:18:01.128Z,0
2017-12-23T17:28:16.460Z,0
2017-12-23T17:38:31.185Z,0
2017-12-23T17:48:46.126Z,0
2017-12-23T17:59:01.106Z,0
2017-12-23T18:09:15.803Z,0
2017-12-23T18:19:31.096Z,0
2017-12-23T18:29:45.647Z,0
2017-12-23T18:40:00.876Z,0
2017-12-23T18:50:16.208Z,0
2017-12-23T19:00:31.780Z,0
2017-12-23T19:10:46.431Z,0
2017-12-23T19:21:00.823Z,0
2017-12-23T19:31:15.311Z,0
2017-12-23T19:41:29.294Z,0
2017-12-23T19:51:43.269Z,0
2017-12-23T20:01:58.740Z,0
2017-12-23T20:12:13.532Z,0
2017-12-23T20:22:28.445Z,0
2017-12-23T20:32:43.660Z,0
2017-12-23T20:42:59.162Z,0
2017-12-23T20:53:14.157Z,0
2017-12-23T21:03:29.196Z,0
2017-12-23T21:13:43.876Z,0
2017-12-23T21:23:58.605Z,0
2017-12-23T21:34:12.977Z,0
2017-12-23T21:44:28.326Z,0
2017-12-23T21:54:43.190Z,0
2017-12-23T22:04:57.379Z,0
2017-12-23T22:15:13.045Z,0
2017-12-23T22:25:28.325Z,0
2017-12-23T22:35:43.866Z,0
2017-12-23T22:45:59.169Z,0
2017-12-23T22:56:13.732Z,0
2017-12-23T23:06:27.624Z,0
2017-12-23T23:16:42.356Z,0
2017-12-23T23:26:57.396Z,0
2017-12-23T23:37:11.258Z,0
2017-12-23T23:47:25.855Z,0
2017-12-23T23:57:39.692Z,0
